createdAt,value
2023-04-15T00:00:30.765Z,16.25
2023-04-15T00:01:12.180Z,16.02
2023-04-15T00:01:46.091Z,16.02
2023-04-15T00:02:33.151Z,16.03
2023-04-15T00:03:07.364Z,16.02
2023-04-15T00:04:01.007Z,16.04
2023-04-15T00:04:37.460Z,16.13
2023-04-15T00:05:24.900Z,16.01
2023-04-15T00:05:59.893Z,15.93
2023-04-15T00:06:47.947Z,16.15
2023-04-15T00:07:22.032Z,16.06
2023-04-15T00:08:01.997Z,15.91
2023-04-15T00:08:42.346Z,15.79
2023-04-15T00:09:21.904Z,16.00
2023-04-15T00:10:04.359Z,16.08
2023-04-15T00:10:44.889Z,16.07
2023-04-15T00:11:25.105Z,16.01
2023-04-15T00:12:04.949Z,15.92
2023-04-15T00:12:44.982Z,16.03
2023-04-15T00:13:24.948Z,16.04
2023-04-15T00:14:07.455Z,16.00
2023-04-15T00:14:47.907Z,15.82
2023-04-15T00:15:42.095Z,15.95
2023-04-15T00:16:35.982Z,15.95
2023-04-15T00:17:30.922Z,16.08
2023-04-15T00:18:27.163Z,15.87
2023-04-15T00:19:06.995Z,15.96
2023-04-15T00:19:46.895Z,16.02
2023-04-15T00:20:26.963Z,16.17
2023-04-15T00:21:07.096Z,16.10
2023-04-15T00:21:48.011Z,15.97
2023-04-15T00:22:27.922Z,16.08
2023-04-15T00:23:09.998Z,16.05
2023-04-15T00:23:50.912Z,16.13
2023-04-15T00:24:31.599Z,16.15
2023-04-15T00:25:12.895Z,16.08
2023-04-15T00:25:53.989Z,15.99
2023-04-15T00:26:34.879Z,15.84
2023-04-15T00:27:15.267Z,16.03
2023-04-15T00:27:54.916Z,16.19
2023-04-15T00:28:35.363Z,16.19
2023-04-15T00:29:16.928Z,16.16
2023-04-15T00:29:58.243Z,16.12
2023-04-15T00:30:37.969Z,16.11
2023-04-15T00:31:18.078Z,15.89
2023-04-15T00:31:57.886Z,16.13
2023-04-15T00:32:37.963Z,16.04
2023-04-15T00:33:19.888Z,16.04
2023-04-15T00:34:01.046Z,16.05
2023-04-15T00:34:40.897Z,16.06
2023-04-15T00:35:21.688Z,16.07
2023-04-15T00:36:01.915Z,16.10
2023-04-15T00:36:42.273Z,16.08
2023-04-15T00:37:22.881Z,15.97
2023-04-15T00:38:04.695Z,16.01
2023-04-15T00:38:45.897Z,16.03
2023-04-15T00:39:28.125Z,16.08
2023-04-15T00:40:08.955Z,15.98
2023-04-15T00:40:49.955Z,15.98
2023-04-15T00:41:30.923Z,15.93
2023-04-15T00:42:12.003Z,15.83
2023-04-15T00:42:51.871Z,15.90
2023-04-15T00:43:32.012Z,15.84
2023-04-15T00:44:13.890Z,15.95
2023-04-15T00:44:53.982Z,15.89
2023-04-15T00:45:36.936Z,15.89
2023-04-15T00:46:20.701Z,15.78
2023-04-15T00:47:00.877Z,15.98
2023-04-15T00:47:43.051Z,15.92
2023-04-15T00:48:22.868Z,15.88
2023-04-15T00:49:02.977Z,15.88
2023-04-15T00:49:42.874Z,15.91
2023-04-15T00:50:24.003Z,15.80
2023-04-15T00:51:03.867Z,15.71
2023-04-15T00:51:44.743Z,15.70
2023-04-15T00:52:24.854Z,15.72
2023-04-15T00:53:05.002Z,15.81
2023-04-15T00:53:44.890Z,15.75
2023-04-15T00:54:26.569Z,15.82
2023-04-15T00:55:08.028Z,15.81
2023-04-15T00:55:47.957Z,15.79
2023-04-15T00:56:30.948Z,15.64
2023-04-15T00:57:13.021Z,15.69
2023-04-15T00:57:53.867Z,15.51
2023-04-15T00:58:35.005Z,15.59
2023-04-15T00:59:15.875Z,15.66
2023-04-15T00:59:56.089Z,15.64
2023-04-15T01:00:36.868Z,15.53
2023-04-15T01:01:17.189Z,15.68
2023-04-15T01:02:04.033Z,15.25
2023-04-15T01:02:39.290Z,15.31
2023-04-15T01:03:28.079Z,15.62
2023-04-15T01:04:04.082Z,15.60
2023-04-15T01:04:50.842Z,15.61
2023-04-15T01:05:25.046Z,15.68
2023-04-15T01:06:11.873Z,15.61
2023-04-15T01:06:45.960Z,15.62
2023-04-15T01:07:25.866Z,15.62
2023-04-15T01:08:05.938Z,15.64
2023-04-15T01:08:45.874Z,15.63
2023-04-15T01:09:26.262Z,15.57
2023-04-15T01:10:06.862Z,15.52
2023-04-15T01:10:46.949Z,15.61
2023-04-15T01:11:27.836Z,15.60
2023-04-15T01:12:08.696Z,15.54
2023-04-15T01:12:49.919Z,15.52
2023-04-15T01:13:31.212Z,15.31
2023-04-15T01:14:11.858Z,15.40
2023-04-15T01:14:51.989Z,15.34
2023-04-15T01:15:31.841Z,15.36
2023-04-15T01:16:13.280Z,15.25
2023-04-15T01:16:53.891Z,15.29
2023-04-15T01:17:34.023Z,15.25
2023-04-15T01:18:14.886Z,15.28
2023-04-15T01:18:55.973Z,15.45
2023-04-15T01:19:35.868Z,15.38
2023-04-15T01:20:16.674Z,15.43
2023-04-15T01:20:57.851Z,15.47
2023-04-15T01:21:40.967Z,15.40
2023-04-15T01:22:20.869Z,15.42
2023-04-15T01:23:01.938Z,15.35
2023-04-15T01:23:45.859Z,15.43
2023-04-15T01:24:27.162Z,15.36
2023-04-15T01:25:39.867Z,15.29
2023-04-15T01:26:21.600Z,15.14
2023-04-15T01:27:02.857Z,15.16
2023-04-15T01:27:45.369Z,15.22
2023-04-15T01:28:26.845Z,15.37
2023-04-15T01:29:07.858Z,15.27
2023-04-15T01:29:44.938Z,15.29
2023-04-15T01:30:33.873Z,15.23
2023-04-15T01:31:19.929Z,15.30
2023-04-15T01:32:07.881Z,15.26
2023-04-15T01:32:42.669Z,15.20
2023-04-15T01:33:29.826Z,15.15
2023-04-15T01:34:03.916Z,15.18
2023-04-15T01:34:44.867Z,15.16
2023-04-15T01:35:25.974Z,15.22
2023-04-15T01:36:06.818Z,15.37
2023-04-15T01:36:46.955Z,15.34
2023-04-15T01:37:26.831Z,15.37
2023-04-15T01:38:13.602Z,15.35
2023-04-15T01:38:54.841Z,15.30
2023-04-15T01:39:35.403Z,15.33
2023-04-15T01:40:16.881Z,15.46
2023-04-15T01:40:57.466Z,15.38
2023-04-15T01:41:37.841Z,15.36
2023-04-15T01:42:17.903Z,15.51
2023-04-15T01:42:58.815Z,15.50
2023-04-15T01:43:39.060Z,15.36
2023-04-15T01:44:18.834Z,15.29
2023-04-15T01:44:58.934Z,15.40
2023-04-15T01:45:38.941Z,15.26
2023-04-15T01:46:18.991Z,15.11
2023-04-15T01:46:59.936Z,15.32
2023-04-15T01:47:39.954Z,15.26
2023-04-15T01:48:19.839Z,15.31
2023-04-15T01:49:00.133Z,15.25
2023-04-15T01:49:40.818Z,15.17
2023-04-15T01:50:21.646Z,15.40
2023-04-15T01:51:05.875Z,15.36
2023-04-15T01:51:45.924Z,15.17
2023-04-15T01:52:25.850Z,15.26
2023-04-15T01:53:05.901Z,15.38
2023-04-15T01:53:45.829Z,15.19
2023-04-15T01:54:26.481Z,15.30
2023-04-15T01:55:07.807Z,15.37
2023-04-15T01:55:47.966Z,15.30
2023-04-15T01:56:27.851Z,15.32
2023-04-15T01:57:07.905Z,15.32
2023-04-15T01:57:48.825Z,15.39
2023-04-15T01:58:28.906Z,15.33
2023-04-15T01:59:09.832Z,15.20
2023-04-15T02:00:03.818Z,15.35
2023-04-15T02:00:57.859Z,15.42
2023-04-15T02:01:45.871Z,15.43
2023-04-15T02:02:45.507Z,15.46
2023-04-15T02:03:27.742Z,15.43
2023-04-15T02:04:07.816Z,15.54
2023-04-15T02:04:47.961Z,15.56
2023-04-15T02:05:27.825Z,15.62
2023-04-15T02:06:07.954Z,15.56
2023-04-15T02:06:47.839Z,15.40
2023-04-15T02:07:32.283Z,15.46
2023-04-15T02:08:12.790Z,15.44
2023-04-15T02:08:53.292Z,15.59
2023-04-15T02:09:34.823Z,15.62
2023-04-15T02:10:16.740Z,15.62
2023-04-15T02:10:57.830Z,15.28
2023-04-15T02:11:39.262Z,15.45
2023-04-15T02:12:20.875Z,15.29
2023-04-15T02:13:01.146Z,15.49
2023-04-15T02:13:40.831Z,15.56
2023-04-15T02:14:21.078Z,15.49
2023-04-15T02:15:01.803Z,15.56
2023-04-15T02:15:42.890Z,15.53
2023-04-15T02:16:24.836Z,15.57
2023-04-15T02:17:08.330Z,15.51
2023-04-15T02:17:51.916Z,15.60
2023-04-15T02:18:31.951Z,15.57
2023-04-15T02:19:11.796Z,15.35
2023-04-15T02:19:52.949Z,15.50
2023-04-15T02:20:32.786Z,15.50
2023-04-15T02:21:12.905Z,15.48
2023-04-15T02:21:52.791Z,15.62
2023-04-15T02:22:33.915Z,15.51
2023-04-15T02:23:14.822Z,15.56
2023-04-15T02:23:55.942Z,15.65
2023-04-15T02:24:37.803Z,15.53
2023-04-15T02:25:18.014Z,15.47
2023-04-15T02:25:57.811Z,15.49
2023-04-15T02:26:37.869Z,15.52
2023-04-15T02:27:17.842Z,15.48
2023-04-15T02:27:58.882Z,15.34
2023-04-15T02:28:38.805Z,15.41
2023-04-15T02:29:18.863Z,15.46
2023-04-15T02:29:59.778Z,15.49
2023-04-15T02:30:41.213Z,15.53
2023-04-15T02:31:21.924Z,15.50
2023-04-15T02:32:03.024Z,15.48
2023-04-15T02:32:44.854Z,15.48
2023-04-15T02:33:25.149Z,15.60
2023-04-15T02:34:04.884Z,15.56
2023-04-15T02:34:46.873Z,15.36
2023-04-15T02:35:27.822Z,15.36
2023-04-15T02:36:10.093Z,15.56
2023-04-15T02:36:49.758Z,15.55
2023-04-15T02:37:31.126Z,15.60
2023-04-15T02:38:10.828Z,15.52
2023-04-15T02:38:51.362Z,15.51
2023-04-15T02:39:31.822Z,15.51
2023-04-15T02:40:21.905Z,15.56
2023-04-15T02:41:01.778Z,15.58
2023-04-15T02:41:43.783Z,15.49
2023-04-15T02:42:23.751Z,15.52
2023-04-15T02:43:05.302Z,15.49
2023-04-15T02:43:46.797Z,15.49
2023-04-15T02:44:27.862Z,15.47
2023-04-15T02:45:07.789Z,15.44
2023-04-15T02:45:47.925Z,15.60
2023-04-15T02:46:29.840Z,15.58
2023-04-15T02:47:11.651Z,15.61
2023-04-15T02:47:52.912Z,15.47
2023-04-15T02:48:33.890Z,15.49
2023-04-15T02:49:14.769Z,15.52
2023-04-15T02:49:54.851Z,15.42
2023-04-15T02:50:34.872Z,15.38
2023-04-15T02:51:24.895Z,15.36
2023-04-15T02:52:06.776Z,15.48
2023-04-15T02:52:48.972Z,15.49
2023-04-15T02:53:28.793Z,15.52
2023-04-15T02:54:08.846Z,15.56
2023-04-15T02:54:48.795Z,15.50
2023-04-15T02:55:28.874Z,15.42
2023-04-15T02:56:08.785Z,15.47
2023-04-15T02:56:50.441Z,15.54
2023-04-15T02:57:30.767Z,15.49
2023-04-15T02:58:10.922Z,15.55
2023-04-15T02:58:51.753Z,15.50
2023-04-15T02:59:31.869Z,15.58
2023-04-15T03:00:15.788Z,15.63
2023-04-15T03:00:56.939Z,15.64
2023-04-15T03:01:36.872Z,15.69
2023-04-15T03:02:16.966Z,15.57
2023-04-15T03:03:02.971Z,15.60
2023-04-15T03:03:42.930Z,15.59
2023-04-15T03:04:22.806Z,15.50
2023-04-15T03:05:04.118Z,15.49
2023-04-15T03:05:45.771Z,15.46
2023-04-15T03:06:26.312Z,15.54
2023-04-15T03:07:08.775Z,15.48
2023-04-15T03:07:48.841Z,15.49
2023-04-15T03:08:28.750Z,15.60
2023-04-15T03:09:09.986Z,15.40
2023-04-15T03:09:49.757Z,15.56
2023-04-15T03:10:29.843Z,15.64
2023-04-15T03:11:10.758Z,15.54
2023-04-15T03:11:53.493Z,15.69
2023-04-15T03:12:34.768Z,15.68
2023-04-15T03:13:15.937Z,15.58
2023-04-15T03:13:55.755Z,15.71
2023-04-15T03:14:35.898Z,15.72
2023-04-15T03:15:16.764Z,15.73
2023-04-15T03:15:56.856Z,15.70
2023-04-15T03:16:36.753Z,15.66
2023-04-15T03:17:18.145Z,15.49
2023-04-15T03:17:57.822Z,15.52
2023-04-15T03:18:38.392Z,15.54
2023-04-15T03:19:18.750Z,15.68
2023-04-15T03:19:58.910Z,15.66
2023-04-15T03:20:38.775Z,15.75
2023-04-15T03:21:20.038Z,15.78
2023-04-15T03:21:59.741Z,15.82
2023-04-15T03:22:40.842Z,15.71
2023-04-15T03:23:20.780Z,15.61
2023-04-15T03:24:00.948Z,15.73
2023-04-15T03:24:40.751Z,15.85
2023-04-15T03:25:21.865Z,15.73
2023-04-15T03:26:04.753Z,15.76
2023-04-15T03:26:44.878Z,15.71
2023-04-15T03:27:24.726Z,15.60
2023-04-15T03:28:06.841Z,15.49
2023-04-15T03:28:46.734Z,15.72
2023-04-15T03:29:27.824Z,15.60
2023-04-15T03:30:07.885Z,15.68
2023-04-15T03:30:47.823Z,15.53
2023-04-15T03:31:27.800Z,15.48
2023-04-15T03:32:07.830Z,15.57
2023-04-15T03:32:47.829Z,15.45
2023-04-15T03:33:28.818Z,15.33
2023-04-15T03:34:08.752Z,15.48
2023-04-15T03:34:48.783Z,15.39
2023-04-15T03:35:28.724Z,15.51
2023-04-15T03:36:08.840Z,15.41
2023-04-15T03:36:48.793Z,15.44
2023-04-15T03:37:29.825Z,15.34
2023-04-15T03:38:09.759Z,15.41
2023-04-15T03:38:50.193Z,15.58
2023-04-15T03:39:30.752Z,15.53
2023-04-15T03:40:12.053Z,15.57
2023-04-15T03:40:53.722Z,15.47
2023-04-15T03:41:34.836Z,15.51
2023-04-15T03:42:14.745Z,15.59
2023-04-15T03:42:54.834Z,15.51
2023-04-15T03:43:34.746Z,15.59
2023-04-15T03:44:14.827Z,15.59
2023-04-15T03:44:54.753Z,15.54
2023-04-15T03:45:35.820Z,15.59
2023-04-15T03:46:15.781Z,15.37
2023-04-15T03:46:55.986Z,15.58
2023-04-15T03:47:35.769Z,15.60
2023-04-15T03:48:18.160Z,15.59
2023-04-15T03:48:58.806Z,15.68
2023-04-15T03:49:40.056Z,15.43
2023-04-15T03:50:19.756Z,15.53
2023-04-15T03:50:59.812Z,15.58
2023-04-15T03:51:39.735Z,15.56
2023-04-15T03:52:19.831Z,15.52
2023-04-15T03:52:59.877Z,15.45
2023-04-15T03:53:41.111Z,15.32
2023-04-15T03:54:22.692Z,15.40
2023-04-15T03:55:02.789Z,15.49
2023-04-15T03:55:43.817Z,15.41
2023-04-15T03:56:23.828Z,15.55
2023-04-15T03:57:03.714Z,15.59
2023-04-15T03:57:44.826Z,15.71
2023-04-15T03:58:25.769Z,15.65
2023-04-15T03:59:06.000Z,15.73
2023-04-15T03:59:45.696Z,15.62
2023-04-15T04:00:26.199Z,15.63
2023-04-15T04:01:06.752Z,15.55
2023-04-15T04:01:47.848Z,15.49
2023-04-15T04:02:29.839Z,15.57
2023-04-15T04:03:10.039Z,15.55
2023-04-15T04:03:50.798Z,15.69
2023-04-15T04:04:31.069Z,15.61
2023-04-15T04:05:12.698Z,15.60
2023-04-15T04:05:53.801Z,15.65
2023-04-15T04:06:33.735Z,15.62
2023-04-15T04:07:13.796Z,15.69
2023-04-15T04:07:53.687Z,15.55
2023-04-15T04:08:33.810Z,15.64
2023-04-15T04:09:13.711Z,15.64
2023-04-15T04:09:54.770Z,15.78
2023-04-15T04:10:34.706Z,15.88
2023-04-15T04:11:14.805Z,15.77
2023-04-15T04:11:54.707Z,15.88
2023-04-15T04:12:34.799Z,15.86
2023-04-15T04:13:14.700Z,15.81
2023-04-15T04:13:55.859Z,15.75
2023-04-15T04:14:36.716Z,15.70
2023-04-15T04:15:17.805Z,15.91
2023-04-15T04:15:57.709Z,15.93
2023-04-15T04:16:37.806Z,16.01
2023-04-15T04:17:17.764Z,16.06
2023-04-15T04:17:58.810Z,16.01
2023-04-15T04:18:39.736Z,15.82
2023-04-15T04:19:20.294Z,15.95
2023-04-15T04:20:00.703Z,16.01
2023-04-15T04:20:41.261Z,16.05
2023-04-15T04:21:21.670Z,16.03
2023-04-15T04:22:02.788Z,16.00
2023-04-15T04:22:46.720Z,16.00
2023-04-15T04:23:26.771Z,16.10
2023-04-15T04:24:07.706Z,16.09
2023-04-15T04:24:47.750Z,15.71
2023-04-15T04:25:27.692Z,15.78
2023-04-15T04:26:08.793Z,15.95
2023-04-15T04:26:48.716Z,15.87
2023-04-15T04:27:28.952Z,15.91
2023-04-15T04:28:08.707Z,15.99
2023-04-15T04:28:48.817Z,15.97
2023-04-15T04:29:28.725Z,16.09
2023-04-15T04:30:09.773Z,16.07
2023-04-15T04:30:49.679Z,16.10
2023-04-15T04:31:29.825Z,16.09
2023-04-15T04:32:09.829Z,16.11
2023-04-15T04:32:49.794Z,16.05
2023-04-15T04:33:29.720Z,16.16
2023-04-15T04:34:10.843Z,16.15
2023-04-15T04:34:50.687Z,16.08
2023-04-15T04:35:30.815Z,16.19
2023-04-15T04:36:11.654Z,16.17
2023-04-15T04:36:51.946Z,16.27
2023-04-15T04:37:31.676Z,16.27
2023-04-15T04:38:12.757Z,16.15
2023-04-15T04:38:52.699Z,16.15
2023-04-15T04:39:32.856Z,16.17
2023-04-15T04:40:15.682Z,16.06
2023-04-15T04:40:55.952Z,15.98
2023-04-15T04:41:36.663Z,16.03
2023-04-15T04:42:17.789Z,15.95
2023-04-15T04:42:57.688Z,16.00
2023-04-15T04:43:38.794Z,16.05
2023-04-15T04:44:18.674Z,15.93
2023-04-15T04:44:58.881Z,16.12
2023-04-15T04:45:38.677Z,16.12
2023-04-15T04:46:19.865Z,16.16
2023-04-15T04:46:59.656Z,16.14
2023-04-15T04:47:39.794Z,15.92
2023-04-15T04:48:19.662Z,16.00
2023-04-15T04:48:59.801Z,16.07
2023-04-15T04:49:40.695Z,16.02
2023-04-15T04:50:21.760Z,16.02
2023-04-15T04:51:02.651Z,16.08
2023-04-15T04:51:42.754Z,16.06
2023-04-15T04:52:22.640Z,15.99
2023-04-15T04:53:02.825Z,15.99
2023-04-15T04:53:44.668Z,15.89
2023-04-15T04:54:26.269Z,15.86
2023-04-15T04:55:06.702Z,15.83
2023-04-15T04:55:46.756Z,15.80
2023-04-15T04:56:26.691Z,15.81
2023-04-15T04:57:08.069Z,15.87
2023-04-15T04:57:48.686Z,15.91
2023-04-15T04:58:29.750Z,15.96
2023-04-15T04:59:09.643Z,15.98
2023-04-15T04:59:49.758Z,15.98
2023-04-15T05:00:29.781Z,15.88
2023-04-15T05:01:10.836Z,15.96
2023-04-15T05:01:50.699Z,16.01
2023-04-15T05:02:32.595Z,16.04
2023-04-15T05:03:13.813Z,15.92
2023-04-15T05:03:53.889Z,15.94
2023-04-15T05:04:33.638Z,15.95
2023-04-15T05:05:15.026Z,15.98
2023-04-15T05:05:55.662Z,15.84
2023-04-15T05:06:36.937Z,15.92
2023-04-15T05:07:17.690Z,16.00
2023-04-15T05:07:57.751Z,16.09
2023-04-15T05:08:39.121Z,16.05
2023-04-15T05:09:20.813Z,16.10
2023-04-15T05:10:00.682Z,16.08
2023-04-15T05:10:41.752Z,16.14
2023-04-15T05:11:21.665Z,16.16
2023-04-15T05:12:01.848Z,16.07
2023-04-15T05:12:43.643Z,16.18
2023-04-15T05:13:23.860Z,16.08
2023-04-15T05:14:04.715Z,16.22
2023-04-15T05:14:46.828Z,16.12
2023-04-15T05:15:26.627Z,16.18
2023-04-15T05:16:07.496Z,16.16
2023-04-15T05:16:47.683Z,16.26
2023-04-15T05:17:27.931Z,16.08
2023-04-15T05:18:07.634Z,16.00
2023-04-15T05:18:48.730Z,16.14
2023-04-15T05:19:28.613Z,16.12
2023-04-15T05:20:09.799Z,16.13
2023-04-15T05:20:49.644Z,16.12
2023-04-15T05:21:31.690Z,16.09
2023-04-15T05:22:11.666Z,16.16
2023-04-15T05:22:52.719Z,16.07
2023-04-15T05:23:32.643Z,16.08
2023-04-15T05:24:13.722Z,16.14
2023-04-15T05:24:53.624Z,16.17
2023-04-15T05:25:33.798Z,16.27
2023-04-15T05:26:14.623Z,16.28
2023-04-15T05:26:56.777Z,16.30
2023-04-15T05:27:37.674Z,16.19
2023-04-15T05:28:17.811Z,16.37
2023-04-15T05:28:57.629Z,16.36
2023-04-15T05:29:37.723Z,16.30
2023-04-15T05:30:18.635Z,16.26
2023-04-15T05:30:59.794Z,16.37
2023-04-15T05:31:39.666Z,16.39
2023-04-15T05:32:19.771Z,16.38
2023-04-15T05:32:59.709Z,16.41
2023-04-15T05:33:40.512Z,16.40
2023-04-15T05:34:22.650Z,16.36
2023-04-15T05:35:03.742Z,16.31
2023-04-15T05:35:43.648Z,16.32
2023-04-15T05:36:23.726Z,16.34
2023-04-15T05:37:03.674Z,16.30
2023-04-15T05:37:43.734Z,16.29
2023-04-15T05:38:23.630Z,16.33
2023-04-15T05:39:04.709Z,16.19
2023-04-15T05:39:44.630Z,16.16
2023-04-15T05:40:24.902Z,16.23
2023-04-15T05:41:04.626Z,16.22
2023-04-15T05:41:45.798Z,16.25
2023-04-15T05:42:25.621Z,16.15
2023-04-15T05:43:06.720Z,16.25
2023-04-15T05:43:46.619Z,16.06
2023-04-15T05:44:26.890Z,16.15
2023-04-15T05:45:06.587Z,16.15
2023-04-15T05:45:46.763Z,16.15
2023-04-15T05:46:26.707Z,16.13
2023-04-15T05:47:08.673Z,16.23
2023-04-15T05:47:48.733Z,16.13
2023-04-15T05:48:28.699Z,16.13
2023-04-15T05:49:08.659Z,16.20
2023-04-15T05:49:48.716Z,16.13
2023-04-15T05:50:28.608Z,16.16
2023-04-15T05:51:09.815Z,16.23
2023-04-15T05:51:49.606Z,16.32
2023-04-15T05:52:29.714Z,16.35
2023-04-15T05:53:09.625Z,16.20
2023-04-15T05:53:49.705Z,16.30
2023-04-15T05:54:29.622Z,16.31
2023-04-15T05:55:10.913Z,16.31
2023-04-15T05:55:50.602Z,16.13
2023-04-15T05:56:30.760Z,16.15
2023-04-15T05:57:10.592Z,16.26
2023-04-15T05:57:50.686Z,16.29
2023-04-15T05:58:30.623Z,16.22
2023-04-15T05:59:11.700Z,16.30
2023-04-15T05:59:51.622Z,16.38
2023-04-15T06:00:32.152Z,16.39
2023-04-15T06:01:12.602Z,16.39
2023-04-15T06:01:53.021Z,16.38
2023-04-15T06:02:35.686Z,16.35
2023-04-15T06:03:16.872Z,16.37
2023-04-15T06:03:57.720Z,16.44
2023-04-15T06:04:37.842Z,16.40
2023-04-15T06:05:18.681Z,16.37
2023-04-15T06:05:58.743Z,16.41
2023-04-15T06:06:41.610Z,16.28
2023-04-15T06:07:22.668Z,16.49
2023-04-15T06:08:05.007Z,16.48
2023-04-15T06:08:44.673Z,16.45
2023-04-15T06:09:24.658Z,16.47
2023-04-15T06:10:04.659Z,16.52
2023-04-15T06:10:44.591Z,16.58
2023-04-15T06:11:26.872Z,16.49
2023-04-15T06:12:08.600Z,16.50
2023-04-15T06:12:48.674Z,16.57
2023-04-15T06:13:28.601Z,16.48
2023-04-15T06:14:08.703Z,16.46
2023-04-15T06:14:49.613Z,16.36
2023-04-15T06:15:30.688Z,16.29
2023-04-15T06:16:11.618Z,16.42
2023-04-15T06:16:51.733Z,16.40
2023-04-15T06:17:32.650Z,16.36
2023-04-15T06:18:13.132Z,16.45
2023-04-15T06:19:00.971Z,16.54
2023-04-15T06:19:36.742Z,16.44
2023-04-15T06:20:23.574Z,16.48
2023-04-15T06:20:57.673Z,16.45
2023-04-15T06:21:38.600Z,16.49
2023-04-15T06:22:18.678Z,16.46
2023-04-15T06:22:59.642Z,16.51
2023-04-15T06:23:43.687Z,16.44
2023-04-15T06:24:23.590Z,16.46
2023-04-15T06:25:03.657Z,16.39
2023-04-15T06:25:43.605Z,16.42
2023-04-15T06:26:23.679Z,16.42
2023-04-15T06:27:04.603Z,16.49
2023-04-15T06:27:44.701Z,16.40
2023-04-15T06:28:24.576Z,16.41
2023-04-15T06:29:04.698Z,16.14
2023-04-15T06:29:44.574Z,16.06
2023-04-15T06:30:24.756Z,16.09
2023-04-15T06:31:06.642Z,16.06
2023-04-15T06:31:47.761Z,16.01
2023-04-15T06:32:27.724Z,16.03
2023-04-15T06:33:07.736Z,15.93
2023-04-15T06:33:47.652Z,15.96
2023-04-15T06:34:27.659Z,15.88
2023-04-15T06:35:08.569Z,15.80
2023-04-15T06:35:49.677Z,15.67
2023-04-15T06:36:32.075Z,15.74
2023-04-15T06:37:16.344Z,15.67
2023-04-15T06:37:58.650Z,15.87
2023-04-15T06:38:38.717Z,15.94
2023-04-15T06:39:18.600Z,15.90
2023-04-15T06:39:58.645Z,15.90
2023-04-15T06:40:38.620Z,15.81
2023-04-15T06:41:18.689Z,15.83
2023-04-15T06:41:59.570Z,15.80
2023-04-15T06:42:39.736Z,15.81
2023-04-15T06:43:20.610Z,15.64
2023-04-15T06:44:00.986Z,15.70
2023-04-15T06:44:41.601Z,15.64
2023-04-15T06:45:21.673Z,15.63
2023-04-15T06:46:01.761Z,15.68
2023-04-15T06:46:41.665Z,15.57
2023-04-15T06:47:21.616Z,15.65
2023-04-15T06:48:02.638Z,15.75
2023-04-15T06:48:43.595Z,15.78
2023-04-15T06:49:24.656Z,15.81
2023-04-15T06:50:04.624Z,15.69
2023-04-15T06:50:47.765Z,15.90
2023-04-15T06:51:31.563Z,15.76
2023-04-15T06:52:13.038Z,15.85
2023-04-15T06:52:52.702Z,15.83
2023-04-15T06:53:38.135Z,15.93
2023-04-15T06:54:19.671Z,15.97
2023-04-15T06:54:59.784Z,15.98
2023-04-15T06:55:40.751Z,16.04
2023-04-15T06:56:21.978Z,16.06
2023-04-15T06:57:06.531Z,15.93
2023-04-15T06:57:48.207Z,16.12
2023-04-15T06:58:29.583Z,16.12
2023-04-15T06:59:09.785Z,16.13
2023-04-15T06:59:50.652Z,16.27
2023-04-15T07:00:30.776Z,16.28
2023-04-15T07:01:11.576Z,16.29
2023-04-15T07:01:51.985Z,16.18
2023-04-15T07:02:32.653Z,16.22
2023-04-15T07:03:13.754Z,16.12
2023-04-15T07:03:57.599Z,16.12
2023-04-15T07:04:38.088Z,16.13
2023-04-15T07:05:19.621Z,16.05
2023-04-15T07:05:59.797Z,16.02
2023-04-15T07:06:40.620Z,16.06
2023-04-15T07:07:20.657Z,16.03
2023-04-15T07:08:03.932Z,15.95
2023-04-15T07:08:45.633Z,15.99
2023-04-15T07:09:27.526Z,16.01
2023-04-15T07:10:07.702Z,15.90
2023-04-15T07:10:47.575Z,15.99
2023-04-15T07:11:29.681Z,16.01
2023-04-15T07:12:10.624Z,15.93
2023-04-15T07:12:52.923Z,16.08
2023-04-15T07:13:34.604Z,16.11
2023-04-15T07:14:20.876Z,16.04
2023-04-15T07:15:03.718Z,16.05
2023-04-15T07:16:00.776Z,16.04
2023-04-15T07:16:57.664Z,15.96
2023-04-15T07:18:14.592Z,16.00
2023-04-15T07:19:09.556Z,15.87
2023-04-15T07:20:03.527Z,15.95
2023-04-15T07:21:00.542Z,16.03
2023-04-15T07:21:54.546Z,16.04
2023-04-15T07:22:48.529Z,16.01
2023-04-15T07:23:42.577Z,16.04
2023-04-15T07:24:37.519Z,16.10
2023-04-15T07:25:32.540Z,16.08
2023-04-15T07:26:23.567Z,16.10
2023-04-15T07:27:01.280Z,15.82
2023-04-15T07:27:48.514Z,16.02
2023-04-15T07:28:22.615Z,15.84
2023-04-15T07:29:11.510Z,15.94
2023-04-15T07:29:45.656Z,15.87
2023-04-15T07:30:35.581Z,16.04
2023-04-15T07:31:10.809Z,16.00
2023-04-15T07:31:50.540Z,16.08
2023-04-15T07:32:31.095Z,16.00
2023-04-15T07:33:12.522Z,16.05
2023-04-15T07:33:53.347Z,16.00
2023-04-15T07:34:34.537Z,16.09
2023-04-15T07:35:15.647Z,16.11
2023-04-15T07:35:56.559Z,16.07
2023-04-15T07:36:36.949Z,16.19
2023-04-15T07:37:17.533Z,16.20
2023-04-15T07:37:57.858Z,16.30
2023-04-15T07:38:41.552Z,16.26
2023-04-15T07:39:25.983Z,16.37
2023-04-15T07:40:07.583Z,16.26
2023-04-15T07:40:48.384Z,16.42
2023-04-15T07:41:30.548Z,16.41
2023-04-15T07:42:10.632Z,16.44
2023-04-15T07:42:51.547Z,16.47
2023-04-15T07:43:36.652Z,16.48
2023-04-15T07:44:18.526Z,16.56
2023-04-15T07:44:58.598Z,16.55
2023-04-15T07:45:40.532Z,16.58
2023-04-15T07:46:24.613Z,16.55
2023-04-15T07:47:04.564Z,16.59
2023-04-15T07:47:44.623Z,16.59
2023-04-15T07:48:25.528Z,16.63
2023-04-15T07:49:05.565Z,16.59
2023-04-15T07:49:45.550Z,16.57
2023-04-15T07:50:26.281Z,16.58
2023-04-15T07:51:09.534Z,16.49
2023-04-15T07:51:50.585Z,16.30
2023-04-15T07:52:31.484Z,16.25
2023-04-15T07:53:13.638Z,16.30
2023-04-15T07:53:55.551Z,16.29
2023-04-15T07:54:36.719Z,16.30
2023-04-15T07:55:17.529Z,16.32
2023-04-15T07:55:59.044Z,16.27
2023-04-15T07:56:42.564Z,16.26
2023-04-15T07:57:22.682Z,16.32
2023-04-15T07:58:03.501Z,16.28
2023-04-15T07:58:43.654Z,16.22
2023-04-15T07:59:24.541Z,16.31
2023-04-15T08:00:10.327Z,16.35
2023-04-15T08:00:51.491Z,16.24
2023-04-15T08:01:31.655Z,16.28
2023-04-15T08:02:11.550Z,16.27
2023-04-15T08:02:53.379Z,16.28
2023-04-15T08:03:34.632Z,16.25
2023-04-15T08:04:14.806Z,16.33
2023-04-15T08:04:55.634Z,16.35
2023-04-15T08:05:40.397Z,16.38
2023-04-15T08:06:21.555Z,16.39
2023-04-15T08:07:01.582Z,16.38
2023-04-15T08:07:43.497Z,16.40
2023-04-15T08:08:23.774Z,16.42
2023-04-15T08:09:03.831Z,16.46
2023-04-15T08:09:44.577Z,16.42
2023-04-15T08:10:24.584Z,16.47
2023-04-15T08:11:05.938Z,16.42
2023-04-15T08:11:47.512Z,16.36
2023-04-15T08:12:27.593Z,16.39
2023-04-15T08:13:08.484Z,16.30
2023-04-15T08:13:48.622Z,16.42
2023-04-15T08:14:29.483Z,16.44
2023-04-15T08:15:13.097Z,16.49
2023-04-15T08:16:20.532Z,16.42
2023-04-15T08:17:00.636Z,16.42
2023-04-15T08:17:41.519Z,16.45
2023-04-15T08:18:21.768Z,16.48
2023-04-15T08:19:02.662Z,16.54
2023-04-15T08:19:42.721Z,16.59
2023-04-15T08:20:23.577Z,16.64
2023-04-15T08:21:03.609Z,16.62
2023-04-15T08:21:44.485Z,16.63
2023-04-15T08:22:24.787Z,16.58
2023-04-15T08:23:04.484Z,16.63
2023-04-15T08:23:46.639Z,16.64
2023-04-15T08:24:26.479Z,16.64
2023-04-15T08:25:06.864Z,16.61
2023-04-15T08:25:47.485Z,16.64
2023-04-15T08:26:28.533Z,16.64
2023-04-15T08:27:12.519Z,16.62
2023-04-15T08:27:54.608Z,16.63
2023-04-15T08:28:34.532Z,16.67
2023-04-15T08:29:16.549Z,16.61
2023-04-15T08:29:57.539Z,16.63
2023-04-15T08:30:37.547Z,16.67
2023-04-15T08:31:19.611Z,16.65
2023-04-15T08:32:14.544Z,16.69
2023-04-15T08:33:09.492Z,16.69
2023-04-15T08:34:05.464Z,16.70
2023-04-15T08:34:59.635Z,16.69
2023-04-15T08:35:53.495Z,16.68
2023-04-15T08:36:47.485Z,16.68
2023-04-15T08:37:34.529Z,16.72
2023-04-15T08:38:08.558Z,16.77
2023-04-15T08:38:56.525Z,16.76
2023-04-15T08:39:30.706Z,16.73
2023-04-15T08:40:18.454Z,16.71
2023-04-15T08:40:52.802Z,16.69
2023-04-15T08:41:56.509Z,16.69
2023-04-15T08:42:45.516Z,16.75
2023-04-15T08:43:42.475Z,16.83
2023-04-15T08:44:38.485Z,16.79
2023-04-15T08:45:33.461Z,16.84
2023-04-15T08:46:27.470Z,16.83
2023-04-15T08:47:22.575Z,16.91
2023-04-15T08:48:13.470Z,16.83
2023-04-15T08:48:47.616Z,16.90
2023-04-15T08:49:35.458Z,16.94
2023-04-15T08:50:11.788Z,16.93
2023-04-15T08:51:09.512Z,16.70
2023-04-15T08:51:43.597Z,16.68
2023-04-15T08:52:33.448Z,16.76
2023-04-15T08:53:07.637Z,16.71
2023-04-15T08:53:49.447Z,16.76
2023-04-15T08:54:29.560Z,16.82
2023-04-15T08:55:11.497Z,16.87